Arlington, TX

9:58 AM CDT on October 30, 2014 (GMT -0500)
Fannin Farm | Change Station
CLOSE
Current Station
Personal Weather Station
Location: Arlington, TX
Elevation: 653 ft
Nearby Weather Stations

Elev 653 ft 32.64 °N, 97.14 °W | Updated 9 minutes ago

Clear
Clear
60.8 °F
Feels Like 60.8 °F
N
0.0
Wind Variable Wind from South

Today
High -- | Low -- °F
--% Chance of Precip.
Yesterday
High -- | Low -- °F
Precip. -- in
7:44 AM 6:39 PM
Waxing Crescent, 44% visible
Pressure 30.17 in
Visibility 10.0 miles
Clouds Clear
Dew Point 51.7 °F
Humidity 72%
Rainfall 0.00 in
Snow Depth Not available.
UV 2 out of 12
Pollen 3.70 out of 12
Air Quality Not available.
Flu Activity Not available.
METAR KGKY 301453Z 15007KT 10SM CLR 17/08 A3018 RMK AO2 SLP214 T01720083 53016

More Conditions Fewer Conditions

Pressure 30.17 in
Visibility 10.0 miles
Clouds Clear
Dew Point 51.7 °F
Humidity 72%
Rainfall 0.00 in
Snow Depth Not available.
UV 2 out of 12
Pollen 3.70 out of 12
Air Quality Not available.
Flu Activity Not available.
METAR KGKY 301453Z 15007KT 10SM CLR 17/08 A3018 RMK AO2 SLP214 T01720083 53016

More Conditions Fewer Conditions

10-Day Weather Forecast

Almanac

Astronomy

Oct. 30, 2014 Rise Set
Actual Time
Civil Twilight
Nautical Twilight
Astronomical Twilight
Moon
Length of Visible Light
Length of Day
Tomorrow will be .
, % of the Moon is Illuminated

Today's Extremes

State Highs State Lows

Community

WunderPhotos

Upload Photos

1,766,379 photos uploaded!

WunderBlogs® & News

Nearby

Air Quality

  Air Quality AQ Index Pollutant
Not available.

Snow Depth

Station Depth Elevation

Earthquake Activity

City Distance Mag. Time & Date
Minimum magnitude displayed is 2.5.

Coastal Water Temperatures

Place Temperature

Nearby Weather Stations